createdAt,value
2017-04-21T00:00:00.617Z,80.20
2017-04-21T00:00:59.885Z,79.60
2017-04-21T00:01:59.155Z,79.40
2017-04-21T00:02:58.397Z,79.30
2017-04-21T00:03:58.382Z,79.20
2017-04-21T00:04:57.641Z,79.10
2017-04-21T00:05:56.908Z,79.00
2017-04-21T00:06:56.177Z,79.10
2017-04-21T00:07:56.194Z,79.10
2017-04-21T00:08:56.152Z,79.10
2017-04-21T00:09:55.388Z,79.20
2017-04-21T00:10:55.372Z,79.40
2017-04-21T00:11:54.599Z,79.50
2017-04-21T00:12:53.842Z,80.50
2017-04-21T00:13:53.110Z,79.70
2017-04-21T00:14:52.351Z,80.20
2017-04-21T00:15:51.626Z,80.50
2017-04-21T00:16:50.877Z,80.80
2017-04-21T00:17:50.121Z,80.80
2017-04-21T00:18:50.141Z,80.90
2017-04-21T00:19:49.392Z,81.10
2017-04-21T00:20:48.609Z,81.00
2017-04-21T00:21:48.620Z,81.30
2017-04-21T00:22:48.621Z,82.10
2017-04-21T00:23:48.577Z,81.40
2017-04-21T00:24:47.822Z,81.60
2017-04-21T00:25:47.139Z,81.90
2017-04-21T00:26:46.577Z,82.20
2017-04-21T00:27:45.805Z,82.50
2017-04-21T00:28:45.033Z,83.00
2017-04-21T00:29:44.297Z,83.10
2017-04-21T00:30:43.540Z,83.30
2017-04-21T00:31:42.804Z,83.10
2017-04-21T00:32:42.108Z,83.00
2017-04-21T00:33:41.398Z,82.70
2017-04-21T00:34:40.624Z,82.60
2017-04-21T00:35:39.863Z,82.10
2017-04-21T00:36:39.916Z,82.10
2017-04-21T00:37:39.917Z,81.20
2017-04-21T00:38:39.895Z,80.90
2017-04-21T00:39:39.129Z,80.70
2017-04-21T00:40:39.093Z,80.50
2017-04-21T00:41:38.342Z,80.60
2017-04-21T00:42:37.572Z,80.40
2017-04-21T00:43:36.833Z,80.30
2017-04-21T00:44:36.062Z,80.60
2017-04-21T00:45:35.279Z,80.40
2017-04-21T00:46:35.252Z,80.30
2017-04-21T00:47:34.533Z,80.40
2017-04-21T00:49:43.498Z,80.90
2017-04-21T00:50:43.477Z,80.70
2017-04-21T00:51:42.731Z,80.80
2017-04-21T00:52:41.950Z,80.50
2017-04-21T00:53:41.182Z,80.60
2017-04-21T00:54:40.442Z,80.80
2017-04-21T00:55:39.688Z,80.70
2017-04-21T00:56:38.908Z,80.70
2017-04-21T00:57:38.135Z,80.60
2017-04-21T00:58:38.081Z,80.90
2017-04-21T00:59:37.316Z,81.00
2017-04-21T01:00:37.379Z,81.30
2017-04-21T01:01:36.648Z,81.40
2017-04-21T01:02:35.894Z,81.80
2017-04-21T01:03:35.135Z,82.00
2017-04-21T01:04:34.436Z,82.30
2017-04-21T01:05:33.699Z,82.40
2017-04-21T01:06:32.982Z,82.30
2017-04-21T01:07:32.238Z,82.30
2017-04-21T01:08:32.220Z,82.10
2017-04-21T01:09:31.452Z,82.20
2017-04-21T01:10:31.503Z,82.60
2017-04-21T01:11:30.741Z,82.70
2017-04-21T01:12:29.965Z,82.50
2017-04-21T01:13:29.208Z,82.60
2017-04-21T01:14:28.457Z,82.90
2017-04-21T01:15:27.732Z,82.70
2017-04-21T01:16:26.977Z,83.00
2017-04-21T01:17:26.218Z,82.80
2017-04-21T01:18:25.472Z,83.00
2017-04-21T01:19:25.449Z,83.00
2017-04-21T01:20:24.728Z,83.10
2017-04-21T01:21:23.962Z,83.30
2017-04-21T01:22:23.978Z,83.70
2017-04-21T01:23:23.973Z,83.30
2017-04-21T01:24:23.969Z,83.70
2017-04-21T01:25:23.198Z,83.60
2017-04-21T01:26:22.646Z,83.70
2017-04-21T01:27:21.870Z,83.70
2017-04-21T01:28:21.194Z,83.70
2017-04-21T01:29:20.453Z,83.70
2017-04-21T01:30:19.707Z,84.30
2017-04-21T01:31:18.947Z,83.60
2017-04-21T01:32:18.199Z,83.60
2017-04-21T01:33:18.242Z,83.60
2017-04-21T01:34:17.473Z,83.60
2017-04-21T01:35:16.719Z,83.60
2017-04-21T01:36:15.953Z,83.70
2017-04-21T01:37:15.166Z,83.50
2017-04-21T01:38:15.163Z,83.20
2017-04-21T01:39:14.404Z,82.90
2017-04-21T01:40:13.647Z,82.70
2017-04-21T01:41:13.633Z,83.30
2017-04-21T01:42:12.861Z,82.50
2017-04-21T01:43:12.816Z,82.30
2017-04-21T01:44:12.092Z,82.10
2017-04-21T01:45:11.322Z,82.10
2017-04-21T01:46:10.561Z,82.30
2017-04-21T01:47:09.798Z,82.30
2017-04-21T01:48:09.049Z,82.30
2017-04-21T01:49:08.269Z,82.50
2017-04-21T01:50:07.582Z,83.00
2017-04-21T01:51:07.552Z,82.80
2017-04-21T01:52:06.762Z,82.50
2017-04-21T01:53:05.965Z,82.60
2017-04-21T01:54:05.932Z,82.60
2017-04-21T01:55:05.190Z,82.60
2017-04-21T01:56:04.722Z,82.80
2017-04-21T01:57:03.946Z,82.50
2017-04-21T01:58:03.175Z,82.60
2017-04-21T01:59:02.404Z,82.90
2017-04-21T02:00:01.637Z,82.90
2017-04-21T02:01:00.856Z,83.40
2017-04-21T02:02:00.072Z,83.50
2017-04-21T02:02:59.317Z,83.60
2017-04-21T02:03:58.554Z,83.60
2017-04-21T02:04:57.775Z,83.50
2017-04-21T02:05:57.785Z,83.60
2017-04-21T02:06:57.744Z,83.60
2017-04-21T02:07:56.986Z,83.50
2017-04-21T02:08:56.221Z,83.50
2017-04-21T02:09:55.433Z,83.50
2017-04-21T02:10:54.657Z,83.40
2017-04-21T02:11:53.904Z,83.90
2017-04-21T02:12:53.165Z,83.40
2017-04-21T02:13:52.425Z,83.70
2017-04-21T02:14:51.643Z,84.10
2017-04-21T02:15:50.896Z,84.20
2017-04-21T02:16:50.862Z,84.30
2017-04-21T02:17:50.150Z,84.30
2017-04-21T02:18:49.384Z,84.30
2017-04-21T02:19:48.620Z,84.60
2017-04-21T02:20:47.882Z,84.70
2017-04-21T02:21:47.100Z,84.70
2017-04-21T02:22:46.356Z,84.80
2017-04-21T02:23:45.616Z,84.80
2017-04-21T02:24:44.972Z,84.80
2017-04-21T02:25:44.188Z,84.90
2017-04-21T02:26:43.416Z,85.00
2017-04-21T02:27:42.665Z,85.00
2017-04-21T02:28:42.645Z,85.10
2017-04-21T02:29:42.684Z,84.80
2017-04-21T02:30:42.664Z,84.50
2017-04-21T02:31:41.904Z,84.80
2017-04-21T02:32:41.157Z,85.00
2017-04-21T02:33:40.401Z,84.80
2017-04-21T02:34:39.676Z,85.00
2017-04-21T02:35:38.965Z,85.00
2017-04-21T02:36:38.201Z,85.20
2017-04-21T02:37:37.419Z,85.20
2017-04-21T02:38:37.393Z,84.90
2017-04-21T02:39:36.617Z,85.20
2017-04-21T02:40:36.588Z,85.20
2017-04-21T02:41:35.889Z,85.20
2017-04-21T02:42:35.909Z,85.30
2017-04-21T02:43:35.122Z,85.30
2017-04-21T02:44:35.125Z,85.30
2017-04-21T02:45:35.078Z,85.60
2017-04-21T02:46:34.304Z,85.60
2017-04-21T02:47:33.580Z,85.70
2017-04-21T02:48:33.186Z,85.70
2017-04-21T02:49:32.403Z,85.70
2017-04-21T02:50:31.671Z,85.80
2017-04-21T02:51:30.904Z,85.80
2017-04-21T02:52:30.171Z,85.80
2017-04-21T02:53:30.185Z,85.90
2017-04-21T02:54:29.405Z,85.80
2017-04-21T02:55:28.640Z,85.80
2017-04-21T02:56:27.879Z,85.80
2017-04-21T02:57:27.104Z,85.80
2017-04-21T02:58:26.334Z,85.70
2017-04-21T02:59:25.600Z,85.70
2017-04-21T03:00:24.880Z,85.70
2017-04-21T03:01:24.106Z,85.90
2017-04-21T03:02:23.366Z,85.90
2017-04-21T03:03:23.353Z,86.00
2017-04-21T03:04:22.571Z,86.20
2017-04-21T03:05:22.614Z,86.10
2017-04-21T03:06:21.859Z,86.30
2017-04-21T03:07:21.896Z,86.10
2017-04-21T03:08:21.178Z,86.10
2017-04-21T03:09:21.161Z,86.30
2017-04-21T03:10:20.432Z,86.30
2017-04-21T03:11:19.673Z,86.30
2017-04-21T03:12:18.898Z,86.30
2017-04-21T03:13:18.130Z,86.40
2017-04-21T03:14:18.106Z,87.20
2017-04-21T03:15:17.384Z,86.60
2017-04-21T03:16:16.601Z,86.80
2017-04-21T03:17:15.856Z,86.80
2017-04-21T03:18:15.081Z,86.90
2017-04-21T03:19:14.306Z,86.90
2017-04-21T03:20:13.576Z,87.50
2017-04-21T03:21:13.549Z,86.90
2017-04-21T03:22:12.761Z,87.00
2017-04-21T03:23:11.994Z,87.10
2017-04-21T03:24:11.234Z,87.10
2017-04-21T03:25:10.460Z,87.20
2017-04-21T03:26:09.677Z,87.40
2017-04-21T03:27:08.915Z,87.20
2017-04-21T03:28:08.888Z,87.30
2017-04-21T03:29:08.203Z,87.40
2017-04-21T03:30:08.180Z,87.40
2017-04-21T03:31:07.407Z,87.50
2017-04-21T03:32:07.377Z,87.50
2017-04-21T03:33:06.645Z,87.70
2017-04-21T03:34:05.861Z,87.80
2017-04-21T03:35:05.136Z,88.00
2017-04-21T03:36:04.345Z,88.00
2017-04-21T03:37:03.572Z,88.00
2017-04-21T03:38:03.568Z,88.10
2017-04-21T03:39:03.709Z,88.10
2017-04-21T03:40:02.969Z,88.00
2017-04-21T03:41:02.974Z,88.00
2017-04-21T03:42:02.944Z,87.90
2017-04-21T03:43:02.176Z,87.90
2017-04-21T03:44:02.137Z,87.90
2017-04-21T03:45:01.395Z,87.80
2017-04-21T03:46:00.618Z,87.80
2017-04-21T03:46:59.888Z,87.70
2017-04-21T03:47:59.144Z,87.60
2017-04-21T03:48:59.107Z,87.50
2017-04-21T03:49:58.565Z,87.50
2017-04-21T03:50:57.804Z,87.50
2017-04-21T03:51:57.033Z,87.60
2017-04-21T03:52:56.381Z,87.60
2017-04-21T03:53:55.600Z,87.60
2017-04-21T03:54:55.568Z,87.70
2017-04-21T03:55:54.800Z,87.70
2017-04-21T03:56:54.809Z,87.60
2017-04-21T03:57:54.036Z,87.60
2017-04-21T03:58:53.320Z,87.90
2017-04-21T03:59:52.537Z,87.80
2017-04-21T04:00:51.771Z,87.90
2017-04-21T04:01:51.021Z,87.70
2017-04-21T04:02:51.038Z,88.50
2017-04-21T04:03:50.253Z,87.80
2017-04-21T04:04:50.241Z,87.90
2017-04-21T04:05:49.464Z,87.90
2017-04-21T04:06:48.696Z,87.90
2017-04-21T04:07:47.954Z,88.20
2017-04-21T04:08:47.197Z,88.10
2017-04-21T04:09:46.420Z,88.20
2017-04-21T04:10:45.678Z,88.50
2017-04-21T04:11:44.921Z,88.40
2017-04-21T04:12:44.156Z,88.30
2017-04-21T04:13:43.402Z,88.30
2017-04-21T04:14:42.628Z,88.30
2017-04-21T04:15:41.849Z,88.30
2017-04-21T04:16:41.168Z,88.40
2017-04-21T04:17:40.400Z,88.50
2017-04-21T04:18:39.633Z,88.50
2017-04-21T04:19:38.882Z,88.40
2017-04-21T04:20:38.104Z,88.40
2017-04-21T04:21:37.337Z,88.40
2017-04-21T04:22:36.593Z,88.40
2017-04-21T04:23:35.804Z,88.20
2017-04-21T04:24:35.017Z,88.00
2017-04-21T04:25:34.225Z,87.70
2017-04-21T04:26:33.476Z,87.20
2017-04-21T04:27:32.743Z,87.00
2017-04-21T04:28:32.023Z,86.20
2017-04-21T04:29:31.281Z,86.00
2017-04-21T04:30:30.503Z,85.70
2017-04-21T04:31:29.717Z,85.30
2017-04-21T04:32:28.944Z,85.00
2017-04-21T04:33:28.136Z,84.30
2017-04-21T04:34:27.407Z,84.00
2017-04-21T04:35:26.615Z,84.00
2017-04-21T04:36:25.861Z,84.00
2017-04-21T04:37:25.096Z,83.80
2017-04-21T04:38:25.100Z,83.90
2017-04-21T04:39:25.078Z,83.20
2017-04-21T04:40:24.346Z,82.30
2017-04-21T04:41:23.581Z,81.70
2017-04-21T04:42:22.817Z,81.30
2017-04-21T04:43:22.061Z,80.60
2017-04-21T04:44:21.285Z,80.30
2017-04-21T04:45:20.541Z,79.80
2017-04-21T04:46:19.803Z,79.60
2017-04-21T04:47:19.028Z,79.50
2017-04-21T04:48:18.993Z,79.10
2017-04-21T04:49:18.214Z,78.20
2017-04-21T04:50:18.180Z,78.10
2017-04-21T04:51:17.443Z,78.00
2017-04-21T04:52:16.732Z,77.50
2017-04-21T04:53:15.976Z,77.70
2017-04-21T04:54:15.207Z,76.40
2017-04-21T04:55:14.428Z,76.40
2017-04-21T04:56:13.651Z,76.50
2017-04-21T04:57:12.908Z,75.70
2017-04-21T04:58:12.189Z,74.40
2017-04-21T04:59:11.419Z,73.90
2017-04-21T05:00:10.697Z,72.50
2017-04-21T05:01:09.939Z,73.10
2017-04-21T05:02:09.168Z,71.80
2017-04-21T05:03:09.216Z,70.70
2017-04-21T05:04:09.204Z,69.70
2017-04-21T05:05:08.447Z,69.20
2017-04-21T05:06:07.672Z,68.00
2017-04-21T05:07:06.899Z,67.50
2017-04-21T05:08:06.172Z,68.00
2017-04-21T05:09:05.630Z,68.10
2017-04-21T05:10:04.897Z,67.60
2017-04-21T05:11:04.125Z,67.30
2017-04-21T05:12:03.373Z,66.70
2017-04-21T05:13:02.576Z,65.20
2017-04-21T05:14:01.917Z,65.60
2017-04-21T05:15:01.132Z,65.30
2017-04-21T05:16:00.384Z,65.20
2017-04-21T05:16:59.621Z,64.90
2017-04-21T05:17:58.930Z,63.80
2017-04-21T05:18:58.166Z,62.60
2017-04-21T05:19:58.140Z,61.80
2017-04-21T05:20:57.376Z,63.00
2017-04-21T05:21:57.390Z,63.00
2017-04-21T05:22:56.592Z,62.40
2017-04-21T05:23:55.813Z,61.60
2017-04-21T05:24:55.058Z,61.20
2017-04-21T05:25:54.284Z,60.00
2017-04-21T05:26:53.539Z,60.10
2017-04-21T05:27:52.833Z,61.40
2017-04-21T05:28:52.048Z,58.50
2017-04-21T05:29:51.282Z,59.10
2017-04-21T05:30:54.222Z,58.80
2017-04-21T05:31:53.512Z,56.70
2017-04-21T05:32:53.693Z,56.80
2017-04-21T05:33:52.925Z,56.40
2017-04-21T05:34:52.221Z,56.00
2017-04-21T05:35:51.440Z,55.60
2017-04-21T05:36:51.416Z,54.00
2017-04-21T05:37:50.644Z,55.40
2017-04-21T05:38:50.662Z,54.50
2017-04-21T05:39:49.889Z,55.70
2017-04-21T05:40:49.111Z,54.20
2017-04-21T05:41:48.418Z,54.10
2017-04-21T05:42:47.636Z,53.90
2017-04-21T05:43:46.869Z,54.30
2017-04-21T05:44:46.136Z,55.80
2017-04-21T05:45:45.353Z,56.10
2017-04-21T05:46:44.579Z,56.10
2017-04-21T05:47:43.812Z,56.20
2017-04-21T05:48:43.050Z,57.40
2017-04-21T05:49:42.283Z,57.20
2017-04-21T05:50:41.549Z,56.10
2017-04-21T05:51:40.789Z,55.70
2017-04-21T05:52:40.010Z,54.50
2017-04-21T05:53:39.250Z,54.10
2017-04-21T05:54:38.456Z,52.90
2017-04-21T05:55:37.678Z,50.30
2017-04-21T05:56:36.925Z,46.00
2017-04-21T05:57:36.176Z,40.30
2017-04-21T05:58:35.408Z,36.30
2017-04-21T05:59:34.653Z,32.30
2017-04-21T06:00:33.886Z,29.80
2017-04-21T06:01:33.094Z,28.60
2017-04-21T06:02:33.084Z,29.10
2017-04-21T06:03:32.497Z,29.40
2017-04-21T06:04:31.713Z,30.40
2017-04-21T06:05:30.970Z,31.90
2017-04-21T06:06:30.973Z,34.50
2017-04-21T06:07:30.957Z,37.50
2017-04-21T06:08:30.246Z,40.60
2017-04-21T06:09:29.472Z,43.10
2017-04-21T06:10:29.444Z,43.30
2017-04-21T06:11:28.665Z,44.10
2017-04-21T06:12:27.873Z,44.40
2017-04-21T06:13:27.087Z,46.80
2017-04-21T06:14:26.360Z,46.60
2017-04-21T06:15:25.569Z,48.70
2017-04-21T06:16:24.800Z,48.70
2017-04-21T06:17:24.008Z,50.20
2017-04-21T06:18:23.969Z,50.50
2017-04-21T06:19:23.241Z,50.70
2017-04-21T06:20:22.500Z,51.50
2017-04-21T06:21:21.724Z,50.90
2017-04-21T06:22:20.942Z,53.00
2017-04-21T06:23:20.164Z,52.00
2017-04-21T06:24:19.418Z,51.00
2017-04-21T06:25:18.654Z,52.80
2017-04-21T06:26:17.909Z,52.80
2017-04-21T06:27:17.132Z,51.90
2017-04-21T06:28:16.357Z,52.00
2017-04-21T06:29:15.588Z,52.10
2017-04-21T06:30:15.577Z,49.70
2017-04-21T06:31:14.859Z,50.60
2017-04-21T06:32:14.134Z,49.70
2017-04-21T06:33:13.349Z,49.60
2017-04-21T06:34:12.564Z,49.40
2017-04-21T06:35:12.393Z,49.10
2017-04-21T06:36:11.627Z,49.60
2017-04-21T06:37:10.848Z,50.30
2017-04-21T06:38:10.852Z,50.20
2017-04-21T06:39:10.069Z,49.90
2017-04-21T06:40:09.965Z,49.30
2017-04-21T06:41:09.208Z,49.90
2017-04-21T06:42:08.446Z,49.40
2017-04-21T06:43:07.654Z,49.80
2017-04-21T06:44:06.905Z,49.90
2017-04-21T06:45:06.123Z,49.80
2017-04-21T06:46:05.357Z,49.40
2017-04-21T06:47:04.594Z,47.60
2017-04-21T06:48:03.829Z,46.90
2017-04-21T06:49:03.076Z,45.20
2017-04-21T06:50:02.353Z,45.50
2017-04-21T06:51:01.616Z,46.10
2017-04-21T06:52:01.575Z,45.60
2017-04-21T06:53:00.793Z,43.80
2017-04-21T06:54:00.024Z,44.80
2017-04-21T06:54:59.238Z,44.70
2017-04-21T06:55:58.513Z,44.20
2017-04-21T06:56:57.729Z,44.20
2017-04-21T06:57:56.945Z,44.20
2017-04-21T06:58:56.186Z,45.40
2017-04-21T06:59:55.403Z,42.40
2017-04-21T07:00:54.693Z,44.50
2017-04-21T07:01:54.667Z,42.80
2017-04-21T07:02:57.953Z,43.30
2017-04-21T07:03:57.360Z,44.50
2017-04-21T07:04:56.597Z,47.20
2017-04-21T07:05:56.581Z,45.00
2017-04-21T07:06:55.849Z,46.40
2017-04-21T07:07:55.092Z,44.30
2017-04-21T07:08:54.386Z,44.30
2017-04-21T07:09:53.633Z,44.70
2017-04-21T07:10:52.897Z,44.40
2017-04-21T07:11:52.118Z,43.30
2017-04-21T07:12:51.387Z,43.20
2017-04-21T07:13:50.678Z,44.10
2017-04-21T07:14:49.967Z,42.50
2017-04-21T07:15:49.200Z,42.20
2017-04-21T07:16:49.165Z,42.90
2017-04-21T07:17:48.398Z,43.80
2017-04-21T07:18:48.409Z,43.90
2017-04-21T07:19:48.397Z,43.20
2017-04-21T07:20:47.608Z,43.50
2017-04-21T07:21:47.584Z,43.40
2017-04-21T07:22:46.814Z,43.50
2017-04-21T07:23:46.036Z,44.60
2017-04-21T07:24:45.301Z,44.30
2017-04-21T07:25:44.540Z,43.40
2017-04-21T07:26:43.769Z,43.80
2017-04-21T07:27:43.769Z,42.70
2017-04-21T07:28:43.748Z,42.90
2017-04-21T07:29:42.973Z,43.20
2017-04-21T07:30:42.969Z,44.40
2017-04-21T07:31:42.949Z,43.30
2017-04-21T07:32:42.188Z,43.50
2017-04-21T07:33:41.400Z,43.80
2017-04-21T07:34:40.637Z,42.40
2017-04-21T07:36:40.653Z,41.70
2017-04-21T07:37:40.629Z,41.50
2017-04-21T07:38:40.619Z,41.30
2017-04-21T07:39:39.849Z,41.30
2017-04-21T07:40:39.091Z,39.50
2017-04-21T07:42:37.618Z,41.00
2017-04-21T07:43:36.835Z,42.00
2017-04-21T07:44:36.084Z,41.30
2017-04-21T07:45:35.313Z,39.70
2017-04-21T07:46:34.556Z,40.00
2017-04-21T07:47:33.778Z,39.80
2017-04-21T07:48:33.805Z,39.80
2017-04-21T07:49:33.042Z,39.60
2017-04-21T07:50:32.256Z,41.00
2017-04-21T07:51:31.479Z,40.10
2017-04-21T07:52:30.729Z,39.90
2017-04-21T07:53:29.948Z,40.00
2017-04-21T07:54:29.212Z,40.00
2017-04-21T07:55:28.450Z,40.20
2017-04-21T07:56:27.669Z,40.30
2017-04-21T07:57:26.928Z,39.10
2017-04-21T07:58:26.209Z,38.00
2017-04-21T07:59:25.510Z,36.50
2017-04-21T08:00:24.771Z,36.90
2017-04-21T08:01:23.999Z,38.40
2017-04-21T08:02:23.242Z,37.50
2017-04-21T08:03:23.214Z,37.60
2017-04-21T08:04:22.459Z,37.10
2017-04-21T08:05:21.690Z,36.20
2017-04-21T08:06:21.776Z,37.50
2017-04-21T08:07:21.009Z,37.40
2017-04-21T08:08:20.272Z,35.30
2017-04-21T08:09:20.280Z,35.90
2017-04-21T08:10:19.536Z,37.00
2017-04-21T08:11:18.759Z,36.40
2017-04-21T08:12:18.014Z,37.00
2017-04-21T08:13:17.251Z,36.80
2017-04-21T08:14:16.460Z,35.20
2017-04-21T08:15:16.440Z,35.60
2017-04-21T08:16:15.672Z,35.40
2017-04-21T08:17:14.910Z,35.40
2017-04-21T08:18:14.173Z,34.10
2017-04-21T08:19:13.418Z,34.20
2017-04-21T08:20:12.700Z,35.10
2017-04-21T08:21:11.951Z,34.00
2017-04-21T08:22:11.189Z,33.60
2017-04-21T08:23:10.451Z,34.20
2017-04-21T08:24:09.725Z,34.40
2017-04-21T08:25:08.969Z,34.80
2017-04-21T08:26:08.957Z,35.20
2017-04-21T08:27:08.216Z,35.60
2017-04-21T08:28:07.452Z,35.70
2017-04-21T08:29:07.425Z,34.80
2017-04-21T08:30:06.685Z,34.50
2017-04-21T08:31:05.905Z,34.50
2017-04-21T08:32:05.152Z,34.30
2017-04-21T08:33:04.387Z,34.00
2017-04-21T08:34:03.662Z,35.00
2017-04-21T08:35:02.887Z,35.40
2017-04-21T08:36:02.174Z,35.40
2017-04-21T08:37:01.401Z,36.20
2017-04-21T08:38:00.631Z,35.80
2017-04-21T08:38:59.861Z,36.40
2017-04-21T08:39:59.821Z,35.80
2017-04-21T08:40:59.064Z,35.50
2017-04-21T08:41:58.365Z,34.30
2017-04-21T08:42:57.600Z,33.90
2017-04-21T08:43:56.840Z,34.00
2017-04-21T08:44:56.375Z,32.70
2017-04-21T08:45:55.615Z,33.10
2017-04-21T08:46:55.611Z,32.80
2017-04-21T08:47:55.623Z,32.20
2017-04-21T08:48:54.840Z,32.20
2017-04-21T08:49:54.074Z,32.40
2017-04-21T08:50:53.300Z,30.90
2017-04-21T08:51:52.521Z,30.60
2017-04-21T08:52:51.746Z,30.70
2017-04-21T08:53:51.036Z,30.90
2017-04-21T08:54:50.249Z,30.90
2017-04-21T08:55:50.206Z,31.60
2017-04-21T08:56:50.175Z,31.40
2017-04-21T08:57:49.411Z,32.30
2017-04-21T08:58:48.672Z,32.00
2017-04-21T08:59:48.100Z,32.40
2017-04-21T09:00:47.384Z,32.20
2017-04-21T09:01:46.621Z,31.40
2017-04-21T09:02:45.846Z,31.80
2017-04-21T09:03:45.113Z,31.80
2017-04-21T09:04:44.334Z,31.50
2017-04-21T09:05:43.618Z,30.70
2017-04-21T09:06:42.882Z,30.80
2017-04-21T09:07:42.150Z,30.90
2017-04-21T09:08:42.146Z,30.00
2017-04-21T09:09:41.476Z,30.10
2017-04-21T09:10:40.692Z,30.60
2017-04-21T09:11:39.968Z,29.80
2017-04-21T09:12:39.192Z,29.90
2017-04-21T09:13:38.431Z,29.00
2017-04-21T09:14:37.653Z,28.50
2017-04-21T09:15:36.869Z,27.90
2017-04-21T09:16:36.115Z,28.00
2017-04-21T09:17:35.430Z,27.60
2017-04-21T09:18:34.665Z,28.30
2017-04-21T09:19:33.890Z,27.80
2017-04-21T09:20:33.121Z,27.80
2017-04-21T09:21:32.373Z,28.10
2017-04-21T09:22:31.602Z,27.20
2017-04-21T09:23:31.699Z,27.50
2017-04-21T09:24:30.919Z,28.00
2017-04-21T09:25:30.137Z,27.70
2017-04-21T09:26:29.364Z,27.00
2017-04-21T09:27:28.716Z,26.70
2017-04-21T09:28:27.985Z,26.70
2017-04-21T09:29:27.238Z,26.10
2017-04-21T09:30:26.461Z,26.00
2017-04-21T09:31:48.831Z,26.80
2017-04-21T09:32:25.004Z,26.10
2017-04-21T09:33:24.290Z,26.70
2017-04-21T09:34:23.496Z,26.20
2017-04-21T09:35:23.511Z,26.80
2017-04-21T09:36:22.781Z,26.10
2017-04-21T09:37:22.014Z,26.60
2017-04-21T09:38:21.285Z,27.70
2017-04-21T09:39:21.263Z,28.20
2017-04-21T09:40:20.481Z,28.40
2017-04-21T09:41:20.453Z,29.10
2017-04-21T09:42:19.757Z,28.90
2017-04-21T09:43:19.029Z,28.60
2017-04-21T09:44:18.293Z,28.00
2017-04-21T09:45:17.513Z,27.80
2017-04-21T09:46:16.737Z,28.60
2017-04-21T09:47:16.728Z,29.20
2017-04-21T09:48:15.961Z,28.80
2017-04-21T09:49:15.190Z,27.40
2017-04-21T09:50:14.489Z,27.60
2017-04-21T09:51:13.721Z,28.30
2017-04-21T09:52:44.015Z,25.60
2017-04-21T09:53:12.365Z,27.60
2017-04-21T09:56:33.268Z,27.30
2017-04-21T09:57:26.103Z,23.80
2017-04-21T09:58:30.466Z,26.40
2017-04-21T09:59:18.163Z,24.80
2017-04-21T10:01:24.645Z,25.00
2017-04-21T10:03:46.857Z,24.60
2017-04-21T10:04:36.870Z,24.80
2017-04-21T10:04:42.746Z,23.50
2017-04-21T10:04:42.806Z,25.00
2017-04-21T10:05:04.837Z,24.10
2017-04-21T10:06:16.149Z,24.30
2017-04-21T10:06:49.235Z,23.20
2017-04-21T10:08:02.729Z,23.40
2017-04-21T10:08:06.264Z,25.30
2017-04-21T10:08:21.618Z,24.70
2017-04-21T10:09:02.048Z,24.20
2017-04-21T10:10:02.020Z,23.50
2017-04-21T10:11:01.249Z,23.70
2017-04-21T10:12:00.497Z,24.50
2017-04-21T10:12:59.758Z,24.60
2017-04-21T10:13:59.025Z,25.20
2017-04-21T10:14:59.057Z,24.80
2017-04-21T10:15:58.272Z,24.60
2017-04-21T10:16:57.501Z,24.00
2017-04-21T10:17:57.505Z,24.50
2017-04-21T10:18:57.515Z,23.50
2017-04-21T10:19:57.540Z,22.90
2017-04-21T10:20:56.844Z,22.80
2017-04-21T10:21:56.069Z,22.20
2017-04-21T10:22:55.322Z,22.40
2017-04-21T10:23:54.585Z,22.60
2017-04-21T10:24:54.554Z,22.70
2017-04-21T10:25:53.793Z,22.00
2017-04-21T10:26:53.037Z,22.10
2017-04-21T10:27:52.289Z,21.70
2017-04-21T10:28:51.518Z,22.00
2017-04-21T10:29:50.794Z,21.70
2017-04-21T10:30:50.038Z,21.10
2017-04-21T10:31:49.277Z,19.90
2017-04-21T10:32:48.521Z,20.20
2017-04-21T10:33:47.812Z,20.40
2017-04-21T10:34:47.028Z,19.50
2017-04-21T10:35:46.297Z,19.30
2017-04-21T10:36:45.520Z,20.30
2017-04-21T10:37:44.761Z,21.40
2017-04-21T10:38:44.037Z,21.90
2017-04-21T10:39:43.254Z,22.00
2017-04-21T10:40:42.481Z,21.60
2017-04-21T10:41:41.749Z,22.30
2017-04-21T10:42:41.008Z,21.70
2017-04-21T10:43:40.975Z,22.30
2017-04-21T10:44:40.221Z,22.50
2017-04-21T10:45:39.469Z,23.30
2017-04-21T10:46:38.697Z,23.50
2017-04-21T10:47:37.977Z,21.90
2017-04-21T10:48:38.000Z,22.40
2017-04-21T10:49:37.228Z,21.90
2017-04-21T10:50:36.459Z,21.90
2017-04-21T10:51:36.420Z,22.10
2017-04-21T10:52:35.636Z,21.60
2017-04-21T10:53:34.902Z,22.10
2017-04-21T10:54:34.152Z,22.80
2017-04-21T10:55:33.385Z,22.20
2017-04-21T10:56:32.616Z,22.30
2017-04-21T10:57:32.697Z,23.50
2017-04-21T10:58:31.922Z,22.90
2017-04-21T10:59:31.181Z,23.10
2017-04-21T11:00:30.412Z,22.30
2017-04-21T11:01:29.656Z,22.50
2017-04-21T11:02:28.898Z,21.50
2017-04-21T11:03:28.125Z,21.50
2017-04-21T11:04:27.336Z,22.30
2017-04-21T11:05:26.600Z,22.10
2017-04-21T11:06:26.593Z,22.10
2017-04-21T11:07:25.851Z,22.60
2017-04-21T11:08:25.089Z,23.10
2017-04-21T11:09:24.303Z,23.00
2017-04-21T11:10:24.274Z,24.40
2017-04-21T11:11:23.526Z,24.10
2017-04-21T11:12:22.752Z,22.60
2017-04-21T11:13:21.981Z,21.80
2017-04-21T11:14:21.929Z,23.70
2017-04-21T11:15:21.156Z,22.80
2017-04-21T11:16:20.387Z,21.90
2017-04-21T11:17:20.396Z,23.20
2017-04-21T11:18:19.617Z,22.10
2017-04-21T11:19:18.844Z,23.30
2017-04-21T11:20:18.063Z,22.30
2017-04-21T11:21:17.276Z,22.30
2017-04-21T11:22:16.496Z,22.30
2017-04-21T11:23:15.740Z,22.60
2017-04-21T11:24:15.021Z,21.50
2017-04-21T11:25:14.270Z,21.80
2017-04-21T11:26:13.487Z,20.70
2017-04-21T11:27:13.453Z,20.50
2017-04-21T11:28:12.664Z,21.90
2017-04-21T11:29:12.758Z,20.90
2017-04-21T11:30:11.975Z,20.10
2017-04-21T11:31:11.949Z,21.60
2017-04-21T11:32:11.172Z,22.60
2017-04-21T11:33:11.145Z,21.30
2017-04-21T11:34:10.373Z,21.80
2017-04-21T11:35:09.632Z,22.20
2017-04-21T11:36:08.847Z,21.10
2017-04-21T11:37:08.119Z,21.10
2017-04-21T11:38:07.328Z,22.60
2017-04-21T11:39:07.304Z,22.20
2017-04-21T11:40:06.535Z,22.20
2017-04-21T11:41:05.841Z,21.20
2017-04-21T11:42:05.103Z,20.80
2017-04-21T11:43:05.071Z,20.80
2017-04-21T11:44:04.300Z,20.80
2017-04-21T11:45:03.572Z,20.70
2017-04-21T11:46:02.809Z,21.10
2017-04-21T11:47:02.076Z,20.60
2017-04-21T11:48:01.294Z,20.30
2017-04-21T11:49:00.521Z,21.20
2017-04-21T11:49:59.744Z,19.20
2017-04-21T11:50:58.964Z,20.30
2017-04-21T11:51:58.209Z,19.10
2017-04-21T11:52:58.216Z,20.20
2017-04-21T11:53:58.174Z,20.10
2017-04-21T11:54:57.403Z,19.70
2017-04-21T11:55:57.364Z,21.20
2017-04-21T11:56:56.580Z,19.90
2017-04-21T11:57:55.818Z,20.80
2017-04-21T11:58:55.362Z,20.50
2017-04-21T11:59:54.599Z,20.10
2017-04-21T12:00:54.110Z,22.30
2017-04-21T12:01:53.338Z,21.60
2017-04-21T12:02:52.565Z,20.60
2017-04-21T12:03:51.890Z,22.10
2017-04-21T12:04:51.136Z,21.10
2017-04-21T12:05:51.112Z,21.20
2017-04-21T12:06:50.392Z,22.00
2017-04-21T12:07:49.593Z,21.80
2017-04-21T12:08:48.832Z,22.00
2017-04-21T12:09:48.044Z,19.20
2017-04-21T12:10:47.310Z,19.50
2017-04-21T12:11:46.539Z,20.20
2017-04-21T12:12:45.772Z,18.60
2017-04-21T12:13:45.725Z,19.80
2017-04-21T12:14:44.962Z,19.50
2017-04-21T12:15:44.924Z,20.20
2017-04-21T12:16:44.172Z,20.50
2017-04-21T12:17:43.410Z,19.70
2017-04-21T12:18:42.656Z,18.70
2017-04-21T12:19:41.941Z,18.40
2017-04-21T12:20:41.160Z,19.20
2017-04-21T12:21:40.432Z,18.80
2017-04-21T12:22:39.684Z,19.00
2017-04-21T12:23:38.920Z,18.90
2017-04-21T12:24:38.184Z,19.30
2017-04-21T12:25:38.145Z,20.20
2017-04-21T12:26:37.392Z,20.30
2017-04-21T12:27:36.648Z,20.30
2017-04-21T12:28:35.932Z,20.40
2017-04-21T12:29:35.156Z,21.10
2017-04-21T12:30:34.372Z,20.40
2017-04-21T12:31:33.612Z,21.50
2017-04-21T12:32:33.576Z,20.20
2017-04-21T12:33:32.859Z,21.00
2017-04-21T12:34:32.165Z,20.70
2017-04-21T12:35:31.380Z,20.70
2017-04-21T12:36:30.609Z,20.40
2017-04-21T12:37:29.839Z,21.40
2017-04-21T12:38:29.088Z,20.90
2017-04-21T12:39:28.776Z,20.20
2017-04-21T12:40:28.056Z,20.50
2017-04-21T12:41:28.021Z,20.90
2017-04-21T12:42:27.247Z,21.20
2017-04-21T12:43:27.413Z,20.90
2017-04-21T12:44:26.624Z,20.70
2017-04-21T12:45:25.833Z,20.20
2017-04-21T12:46:25.822Z,21.50
2017-04-21T12:47:25.103Z,21.10